createdAt,value
2022-11-27T00:00:53.732Z,1006.35
2022-11-27T00:01:53.739Z,1006.42
2022-11-27T00:02:53.895Z,1006.46
2022-11-27T00:03:53.826Z,1006.44
2022-11-27T00:04:53.715Z,1006.50
2022-11-27T00:05:53.729Z,1006.46
2022-11-27T00:06:53.713Z,1006.41
2022-11-27T00:07:53.747Z,1006.41
2022-11-27T00:08:53.705Z,1006.38
2022-11-27T00:09:53.714Z,1006.42
2022-11-27T00:10:53.693Z,1006.33
2022-11-27T00:11:53.679Z,1006.32
2022-11-27T00:12:53.677Z,1006.40
2022-11-27T00:13:53.715Z,1006.31
2022-11-27T00:14:55.662Z,1006.33
2022-11-27T00:15:54.696Z,1006.31
2022-11-27T00:16:53.657Z,1006.17
2022-11-27T00:17:53.668Z,1006.28
2022-11-27T00:18:53.662Z,1006.22
2022-11-27T00:19:53.681Z,1006.22
2022-11-27T00:20:53.661Z,1006.23
2022-11-27T00:21:53.679Z,1006.22
2022-11-27T00:22:53.625Z,1006.23
2022-11-27T00:23:53.660Z,1006.21
2022-11-27T00:24:53.672Z,1006.18
2022-11-27T00:25:53.638Z,1006.18
2022-11-27T00:26:53.624Z,1006.15
2022-11-27T00:27:53.608Z,1006.16
2022-11-27T00:28:53.618Z,1006.14
2022-11-27T00:29:53.613Z,1006.12
2022-11-27T00:30:53.651Z,1006.12
2022-11-27T00:31:53.691Z,1006.08
2022-11-27T00:32:53.597Z,1006.08
2022-11-27T00:33:53.588Z,1006.07
2022-11-27T00:34:53.602Z,1006.03
2022-11-27T00:35:53.586Z,1006.06
2022-11-27T00:36:53.598Z,1006.01
2022-11-27T00:37:53.561Z,1006.02
2022-11-27T00:38:53.564Z,1006.01
2022-11-27T00:39:53.571Z,1005.99
2022-11-27T00:40:53.576Z,1005.95
2022-11-27T00:41:53.570Z,1005.90
2022-11-27T00:42:53.515Z,1005.85
2022-11-27T00:43:54.542Z,1005.82
2022-11-27T00:44:53.582Z,1005.79
2022-11-27T00:45:53.552Z,1005.72
2022-11-27T00:46:53.544Z,1005.72
2022-11-27T00:47:53.511Z,1005.75
2022-11-27T00:48:53.520Z,1005.80
2022-11-27T00:49:53.525Z,1005.73
2022-11-27T00:50:53.496Z,1005.75
2022-11-27T00:51:53.488Z,1005.80
2022-11-27T00:52:53.495Z,1005.76
2022-11-27T00:53:53.530Z,1005.74
2022-11-27T00:54:53.475Z,1005.75
2022-11-27T00:55:53.486Z,1005.68
2022-11-27T00:56:53.474Z,1005.67
2022-11-27T00:57:53.456Z,1005.64
2022-11-27T00:58:53.497Z,1005.67
2022-11-27T00:59:53.458Z,1005.63
2022-11-27T01:00:54.074Z,1005.66
2022-11-27T01:01:53.540Z,1005.62
2022-11-27T01:02:53.515Z,1005.62
2022-11-27T01:03:53.461Z,1005.61
2022-11-27T01:04:53.433Z,1005.63
2022-11-27T01:05:53.444Z,1005.62
2022-11-27T01:06:53.412Z,1005.65
2022-11-27T01:07:53.433Z,1005.65
2022-11-27T01:08:53.403Z,1005.62
2022-11-27T01:09:53.399Z,1005.58
2022-11-27T01:10:55.067Z,1005.60
2022-11-27T01:11:54.369Z,1005.57
2022-11-27T01:12:53.389Z,1005.59
2022-11-27T01:13:53.395Z,1005.62
2022-11-27T01:14:53.392Z,1005.63
2022-11-27T01:15:53.384Z,1005.55
2022-11-27T01:16:53.340Z,1005.61
2022-11-27T01:17:53.346Z,1005.62
2022-11-27T01:18:53.367Z,1005.65
2022-11-27T01:19:53.347Z,1005.52
2022-11-27T01:20:53.333Z,1005.57
2022-11-27T01:21:53.354Z,1005.48
2022-11-27T01:22:53.373Z,1005.53
2022-11-27T01:23:53.319Z,1005.50
2022-11-27T01:24:53.318Z,1005.51
2022-11-27T01:25:53.328Z,1005.52
2022-11-27T01:26:53.318Z,1005.49
2022-11-27T01:27:53.307Z,1005.51
2022-11-27T01:28:53.285Z,1005.58
2022-11-27T01:29:53.448Z,1005.53
2022-11-27T01:30:53.336Z,1005.53
2022-11-27T01:31:53.317Z,1005.53
2022-11-27T01:32:53.294Z,1005.52
2022-11-27T01:33:53.247Z,1005.52
2022-11-27T01:34:54.480Z,1005.52
2022-11-27T01:35:54.252Z,1005.49
2022-11-27T01:36:53.274Z,1005.52
2022-11-27T01:37:53.236Z,1005.54
2022-11-27T01:38:53.238Z,1005.48
2022-11-27T01:39:53.237Z,1005.43
2022-11-27T01:40:53.245Z,1005.45
2022-11-27T01:41:53.247Z,1005.43
2022-11-27T01:42:53.253Z,1005.42
2022-11-27T01:43:53.266Z,1005.44
2022-11-27T01:44:53.233Z,1005.43
2022-11-27T01:45:53.205Z,1005.45
2022-11-27T01:46:53.250Z,1005.44
2022-11-27T01:47:53.192Z,1005.38
2022-11-27T01:48:53.220Z,1005.38
2022-11-27T01:49:53.178Z,1005.39
2022-11-27T01:50:53.191Z,1005.40
2022-11-27T01:51:53.153Z,1005.37
2022-11-27T01:52:53.157Z,1005.36
2022-11-27T01:53:53.168Z,1005.36
2022-11-27T01:54:54.141Z,1005.35
2022-11-27T01:55:54.169Z,1005.28
2022-11-27T01:56:53.137Z,1005.32
2022-11-27T01:57:53.187Z,1005.29
2022-11-27T01:58:53.170Z,1005.33
2022-11-27T01:59:53.200Z,1005.31
2022-11-27T02:00:53.137Z,1005.27
2022-11-27T02:01:54.175Z,1005.21
2022-11-27T02:02:53.168Z,1005.17
2022-11-27T02:03:53.108Z,1005.18
2022-11-27T02:04:53.123Z,1005.15
2022-11-27T02:05:53.160Z,1005.16
2022-11-27T02:06:53.105Z,1005.16
2022-11-27T02:07:53.133Z,1005.14
2022-11-27T02:08:53.127Z,1005.14
2022-11-27T02:09:53.162Z,1005.23
2022-11-27T02:10:53.128Z,1005.26
2022-11-27T02:11:53.061Z,1005.23
2022-11-27T02:12:53.077Z,1005.33
2022-11-27T02:13:53.067Z,1005.27
2022-11-27T02:14:53.078Z,1005.26
2022-11-27T02:15:53.187Z,1005.26
2022-11-27T02:16:53.043Z,1005.25
2022-11-27T02:17:53.070Z,1005.25
2022-11-27T02:18:53.036Z,1005.20
2022-11-27T02:19:53.016Z,1005.25
2022-11-27T02:20:53.054Z,1005.22
2022-11-27T02:21:53.044Z,1005.19
2022-11-27T02:22:52.994Z,1005.22
2022-11-27T02:23:53.029Z,1005.20
2022-11-27T02:24:52.994Z,1005.12
2022-11-27T02:25:53.002Z,1005.19
2022-11-27T02:26:53.029Z,1005.20
2022-11-27T02:27:53.003Z,1005.14
2022-11-27T02:28:53.000Z,1005.13
2022-11-27T02:29:52.978Z,1005.05
2022-11-27T02:30:53.002Z,1004.98
2022-11-27T02:31:53.000Z,1005.01
2022-11-27T02:32:52.963Z,1004.96
2022-11-27T02:33:52.966Z,1004.96
2022-11-27T02:34:52.937Z,1005.06
2022-11-27T02:35:52.937Z,1005.05
2022-11-27T02:36:52.982Z,1005.01
2022-11-27T02:37:52.975Z,1005.05
2022-11-27T02:38:52.984Z,1004.98
2022-11-27T02:39:52.988Z,1005.03
2022-11-27T02:40:52.924Z,1004.97
2022-11-27T02:41:52.974Z,1004.97
2022-11-27T02:42:52.978Z,1005.00
2022-11-27T02:43:52.905Z,1004.96
2022-11-27T02:44:52.942Z,1004.95
2022-11-27T02:45:52.938Z,1004.96
2022-11-27T02:46:52.963Z,1004.95
2022-11-27T02:47:52.886Z,1004.93
2022-11-27T02:48:52.904Z,1004.95
2022-11-27T02:49:52.883Z,1005.02
2022-11-27T02:50:52.912Z,1004.95
2022-11-27T02:51:52.874Z,1005.01
2022-11-27T02:52:52.855Z,1004.94
2022-11-27T02:53:52.878Z,1004.97
2022-11-27T02:54:52.859Z,1004.93
2022-11-27T02:55:52.914Z,1005.01
2022-11-27T02:56:52.844Z,1004.95
2022-11-27T02:57:52.824Z,1004.99
2022-11-27T02:58:52.913Z,1004.98
2022-11-27T02:59:52.818Z,1004.94
2022-11-27T03:00:52.847Z,1004.94
2022-11-27T03:01:52.881Z,1004.93
2022-11-27T03:02:52.865Z,1004.90
2022-11-27T03:03:52.798Z,1004.90
2022-11-27T03:04:52.804Z,1004.88
2022-11-27T03:05:52.796Z,1004.89
2022-11-27T03:06:52.808Z,1004.89
2022-11-27T03:07:52.869Z,1004.84
2022-11-27T03:08:52.771Z,1004.88
2022-11-27T03:09:52.763Z,1004.86
2022-11-27T03:10:52.765Z,1004.84
2022-11-27T03:11:52.801Z,1004.86
2022-11-27T03:12:52.750Z,1004.83
2022-11-27T03:13:52.753Z,1004.85
2022-11-27T03:14:52.805Z,1004.85
2022-11-27T03:15:53.782Z,1004.83
2022-11-27T03:16:52.760Z,1004.77
2022-11-27T03:17:52.727Z,1004.75
2022-11-27T03:18:52.731Z,1004.80
2022-11-27T03:19:52.737Z,1004.78
2022-11-27T03:20:52.696Z,1004.83
2022-11-27T03:21:52.713Z,1004.86
2022-11-27T03:22:52.697Z,1004.77
2022-11-27T03:23:52.773Z,1004.74
2022-11-27T03:24:52.697Z,1004.72
2022-11-27T03:25:52.670Z,1004.70
2022-11-27T03:26:52.704Z,1004.74
2022-11-27T03:27:52.681Z,1004.74
2022-11-27T03:28:52.660Z,1004.75
2022-11-27T03:29:52.672Z,1004.80
2022-11-27T03:30:52.763Z,1004.81
2022-11-27T03:31:52.657Z,1004.81
2022-11-27T03:32:52.688Z,1004.84
2022-11-27T03:33:52.631Z,1004.82
2022-11-27T03:34:52.670Z,1004.85
2022-11-27T03:35:52.618Z,1004.88
2022-11-27T03:36:52.608Z,1004.86
2022-11-27T03:37:52.606Z,1004.92
2022-11-27T03:38:52.611Z,1004.89
2022-11-27T03:39:52.625Z,1004.82
2022-11-27T03:40:52.585Z,1004.82
2022-11-27T03:41:53.598Z,1004.82
2022-11-27T03:42:52.594Z,1004.79
2022-11-27T03:43:52.599Z,1004.77
2022-11-27T03:44:52.578Z,1004.78
2022-11-27T03:45:52.569Z,1004.70
2022-11-27T03:46:52.668Z,1004.77
2022-11-27T03:47:52.645Z,1004.75
2022-11-27T03:48:52.559Z,1004.71
2022-11-27T03:49:52.656Z,1004.73
2022-11-27T03:50:52.584Z,1004.70
2022-11-27T03:51:52.560Z,1004.67
2022-11-27T03:52:52.533Z,1004.66
2022-11-27T03:53:52.536Z,1004.67
2022-11-27T03:54:52.546Z,1004.68
2022-11-27T03:55:52.514Z,1004.64
2022-11-27T03:56:52.514Z,1004.82
2022-11-27T03:57:52.501Z,1004.80
2022-11-27T03:58:52.483Z,1004.84
2022-11-27T03:59:52.507Z,1004.83
2022-11-27T04:00:52.478Z,1004.79
2022-11-27T04:01:52.585Z,1004.81
2022-11-27T04:02:52.525Z,1004.77
2022-11-27T04:03:52.545Z,1004.77
2022-11-27T04:04:52.463Z,1004.82
2022-11-27T04:05:52.431Z,1004.84
2022-11-27T04:06:52.466Z,1004.80
2022-11-27T04:07:52.445Z,1004.80
2022-11-27T04:08:52.460Z,1004.74
2022-11-27T04:09:52.425Z,1004.74
2022-11-27T04:10:52.410Z,1004.78
2022-11-27T04:11:52.431Z,1004.77
2022-11-27T04:12:52.395Z,1004.83
2022-11-27T04:13:53.416Z,1004.84
2022-11-27T04:14:52.398Z,1004.81
2022-11-27T04:15:52.465Z,1004.78
2022-11-27T04:16:52.371Z,1004.82
2022-11-27T04:17:52.389Z,1004.79
2022-11-27T04:18:52.449Z,1004.77
2022-11-27T04:19:52.349Z,1004.71
2022-11-27T04:20:52.358Z,1004.69
2022-11-27T04:21:52.344Z,1004.67
2022-11-27T04:22:52.391Z,1004.66
2022-11-27T04:23:52.355Z,1004.62
2022-11-27T04:24:52.331Z,1004.68
2022-11-27T04:25:52.335Z,1004.66
2022-11-27T04:26:52.318Z,1004.59
2022-11-27T04:27:52.294Z,1004.62
2022-11-27T04:28:52.310Z,1004.56
2022-11-27T04:29:52.304Z,1004.59
2022-11-27T04:30:52.328Z,1004.51
2022-11-27T04:31:52.342Z,1004.56
2022-11-27T04:32:52.291Z,1004.41
2022-11-27T04:33:52.270Z,1004.54
2022-11-27T04:34:52.370Z,1004.40
2022-11-27T04:35:52.287Z,1004.45
2022-11-27T04:36:52.260Z,1004.43
2022-11-27T04:37:52.262Z,1004.48
2022-11-27T04:38:52.239Z,1004.41
2022-11-27T04:39:52.272Z,1004.43
2022-11-27T04:40:52.350Z,1004.42
2022-11-27T04:41:52.244Z,1004.39
2022-11-27T04:42:52.221Z,1004.37
2022-11-27T04:43:52.329Z,1004.34
2022-11-27T04:44:52.225Z,1004.35
2022-11-27T04:45:52.230Z,1004.35
2022-11-27T04:46:52.206Z,1004.35
2022-11-27T04:47:52.211Z,1004.30
2022-11-27T04:48:52.198Z,1004.30
2022-11-27T04:49:52.224Z,1004.30
2022-11-27T04:50:52.262Z,1004.32
2022-11-27T04:51:52.198Z,1004.25
2022-11-27T04:52:52.174Z,1004.22
2022-11-27T04:53:52.163Z,1004.22
2022-11-27T04:54:56.811Z,1004.22
2022-11-27T04:55:54.141Z,1004.19
2022-11-27T04:56:52.196Z,1004.24
2022-11-27T04:57:52.184Z,1004.19
2022-11-27T04:58:52.176Z,1004.26
2022-11-27T04:59:52.171Z,1004.23
2022-11-27T05:00:52.175Z,1004.22
2022-11-27T05:01:52.140Z,1004.23
2022-11-27T05:02:52.189Z,1004.23
2022-11-27T05:03:52.178Z,1004.22
2022-11-27T05:04:52.076Z,1004.21
2022-11-27T05:05:52.095Z,1004.17
2022-11-27T05:06:52.147Z,1004.22
2022-11-27T05:07:52.137Z,1004.18
2022-11-27T05:08:52.106Z,1004.15
2022-11-27T05:09:52.075Z,1004.23
2022-11-27T05:10:52.059Z,1004.19
2022-11-27T05:11:52.072Z,1004.22
2022-11-27T05:12:52.049Z,1004.21
2022-11-27T05:13:52.085Z,1004.15
2022-11-27T05:14:52.048Z,1004.16
2022-11-27T05:15:52.084Z,1004.16
2022-11-27T05:16:52.069Z,1004.22
2022-11-27T05:17:52.040Z,1004.22
2022-11-27T05:18:52.169Z,1004.20
2022-11-27T05:19:52.048Z,1004.27
2022-11-27T05:20:52.011Z,1004.21
2022-11-27T05:21:51.989Z,1004.23
2022-11-27T05:22:52.041Z,1004.24
2022-11-27T05:23:52.121Z,1004.23
2022-11-27T05:24:51.975Z,1004.21
2022-11-27T05:25:52.051Z,1004.24
2022-11-27T05:26:51.956Z,1004.22
2022-11-27T05:27:51.971Z,1004.24
2022-11-27T05:28:52.019Z,1004.22
2022-11-27T05:29:51.969Z,1004.15
2022-11-27T05:30:51.984Z,1004.13
2022-11-27T05:31:52.003Z,1004.16
2022-11-27T05:32:51.976Z,1004.12
2022-11-27T05:33:51.932Z,1004.06
2022-11-27T05:34:51.989Z,1004.12
2022-11-27T05:35:51.895Z,1004.08
2022-11-27T05:36:51.917Z,1004.13
2022-11-27T05:37:51.895Z,1004.17
2022-11-27T05:38:51.958Z,1004.14
2022-11-27T05:39:51.866Z,1004.05
2022-11-27T05:40:51.897Z,1004.05
2022-11-27T05:41:51.984Z,1004.00
2022-11-27T05:42:51.930Z,1004.00
2022-11-27T05:43:51.854Z,1004.00
2022-11-27T05:44:57.864Z,1004.01
2022-11-27T05:45:53.837Z,1003.98
2022-11-27T05:46:51.939Z,1003.99
2022-11-27T05:47:51.836Z,1003.97
2022-11-27T05:48:51.832Z,1003.96
2022-11-27T05:49:51.836Z,1003.94
2022-11-27T05:50:51.830Z,1003.88
2022-11-27T05:51:52.088Z,1003.91
2022-11-27T05:52:51.837Z,1003.90
2022-11-27T05:53:51.826Z,1003.94
2022-11-27T05:54:51.874Z,1003.86
2022-11-27T05:55:51.791Z,1003.83
2022-11-27T05:56:51.776Z,1003.82
2022-11-27T05:57:51.789Z,1003.80
2022-11-27T05:58:51.784Z,1003.85
2022-11-27T05:59:51.810Z,1003.81
2022-11-27T06:00:51.763Z,1003.83
2022-11-27T06:01:51.800Z,1003.82
2022-11-27T06:02:51.921Z,1003.74
2022-11-27T06:03:51.816Z,1003.81
2022-11-27T06:04:51.787Z,1003.75
2022-11-27T06:05:51.753Z,1003.78
2022-11-27T06:06:51.722Z,1003.74
2022-11-27T06:07:51.814Z,1003.76
2022-11-27T06:08:51.719Z,1003.77
2022-11-27T06:09:51.752Z,1003.72
2022-11-27T06:10:51.771Z,1003.79
2022-11-27T06:11:51.730Z,1003.77
2022-11-27T06:12:51.695Z,1003.82
2022-11-27T06:13:51.678Z,1003.87
2022-11-27T06:14:51.682Z,1003.85
2022-11-27T06:15:51.679Z,1003.88
2022-11-27T06:16:51.765Z,1003.84
2022-11-27T06:17:51.650Z,1003.79
2022-11-27T06:18:51.649Z,1003.81
2022-11-27T06:19:51.655Z,1003.86
2022-11-27T06:20:53.129Z,1003.82
2022-11-27T06:21:52.779Z,1003.81
2022-11-27T06:22:51.632Z,1003.80
2022-11-27T06:23:52.616Z,1003.82
2022-11-27T06:24:51.604Z,1003.79
2022-11-27T06:25:51.599Z,1003.84
2022-11-27T06:26:51.720Z,1003.79
2022-11-27T06:27:51.588Z,1003.81
2022-11-27T06:28:51.590Z,1003.79
2022-11-27T06:29:51.584Z,1003.76
2022-11-27T06:30:51.593Z,1003.77
2022-11-27T06:31:51.641Z,1003.79
2022-11-27T06:32:51.605Z,1003.75
2022-11-27T06:33:51.549Z,1003.85
2022-11-27T06:34:51.559Z,1003.79
2022-11-27T06:35:51.562Z,1003.80
2022-11-27T06:36:51.558Z,1003.75
2022-11-27T06:37:51.576Z,1003.75
2022-11-27T06:38:51.536Z,1003.78
2022-11-27T06:39:51.560Z,1003.71
2022-11-27T06:40:51.529Z,1003.71
2022-11-27T06:41:51.504Z,1003.68
2022-11-27T06:42:51.609Z,1003.70
2022-11-27T06:43:51.489Z,1003.63
2022-11-27T06:44:51.501Z,1003.57
2022-11-27T06:45:51.595Z,1003.58
2022-11-27T06:46:51.500Z,1003.59
2022-11-27T06:47:51.506Z,1003.52
2022-11-27T06:48:51.578Z,1003.50
2022-11-27T06:49:51.468Z,1003.49
2022-11-27T06:50:51.463Z,1003.51
2022-11-27T06:51:51.487Z,1003.47
2022-11-27T06:52:51.438Z,1003.51
2022-11-27T06:53:51.454Z,1003.54
2022-11-27T06:54:51.444Z,1003.51
2022-11-27T06:55:51.436Z,1003.53
2022-11-27T06:56:51.418Z,1003.54
2022-11-27T06:57:51.418Z,1003.52
2022-11-27T06:58:51.510Z,1003.52
2022-11-27T06:59:51.427Z,1003.51
2022-11-27T07:00:51.459Z,1003.49
2022-11-27T07:01:51.467Z,1003.44
2022-11-27T07:02:51.433Z,1003.49
2022-11-27T07:03:51.404Z,1003.47
2022-11-27T07:04:51.376Z,1003.47
2022-11-27T07:05:51.366Z,1003.47
2022-11-27T07:06:51.384Z,1003.43
2022-11-27T07:07:51.440Z,1003.39
2022-11-27T07:08:51.343Z,1003.37
2022-11-27T07:09:51.348Z,1003.38
2022-11-27T07:10:51.353Z,1003.37
2022-11-27T07:11:51.342Z,1003.47
2022-11-27T07:12:51.374Z,1003.42
2022-11-27T07:13:51.453Z,1003.45
2022-11-27T07:14:51.418Z,1003.39
2022-11-27T07:15:51.357Z,1003.37
2022-11-27T07:16:51.386Z,1003.36
2022-11-27T07:17:51.323Z,1003.43
2022-11-27T07:18:51.304Z,1003.40
2022-11-27T07:19:51.286Z,1003.37
2022-11-27T07:20:56.087Z,1003.36
2022-11-27T07:21:53.280Z,1003.31
2022-11-27T07:22:51.297Z,1003.32
2022-11-27T07:23:51.391Z,1003.33
2022-11-27T07:24:51.277Z,1003.34
2022-11-27T07:25:52.153Z,1003.34
2022-11-27T07:26:51.291Z,1003.33
2022-11-27T07:27:51.247Z,1003.34
2022-11-27T07:28:51.244Z,1003.28
2022-11-27T07:29:51.265Z,1003.35
2022-11-27T07:30:51.339Z,1003.32
2022-11-27T07:31:51.463Z,1003.37
2022-11-27T07:32:51.224Z,1003.37
2022-11-27T07:33:51.220Z,1003.37
2022-11-27T07:34:51.225Z,1003.36
2022-11-27T07:35:51.203Z,1003.42
2022-11-27T07:36:51.197Z,1003.40
2022-11-27T07:37:51.173Z,1003.43
2022-11-27T07:38:51.197Z,1003.42
2022-11-27T07:40:03.694Z,1003.41
2022-11-27T07:40:53.994Z,1003.43
2022-11-27T07:41:52.187Z,1003.36
2022-11-27T07:42:51.161Z,1003.40
2022-11-27T07:43:51.147Z,1003.39
2022-11-27T07:44:51.180Z,1003.38
2022-11-27T07:45:51.243Z,1003.40
2022-11-27T07:46:51.191Z,1003.41
2022-11-27T07:47:51.122Z,1003.39
2022-11-27T07:48:51.121Z,1003.42
2022-11-27T07:49:51.127Z,1003.39
2022-11-27T07:50:51.140Z,1003.35
2022-11-27T07:51:51.150Z,1003.38
2022-11-27T07:52:51.109Z,1003.37
2022-11-27T07:53:51.088Z,1003.33
2022-11-27T07:54:51.087Z,1003.37
2022-11-27T07:55:51.100Z,1003.34
2022-11-27T07:56:51.090Z,1003.30
2022-11-27T07:57:51.137Z,1003.29
2022-11-27T07:58:51.049Z,1003.27
2022-11-27T07:59:51.047Z,1003.26
2022-11-27T08:00:51.121Z,1003.20
2022-11-27T08:01:51.101Z,1003.17
2022-11-27T08:02:51.133Z,1003.18
2022-11-27T08:03:51.037Z,1003.16
2022-11-27T08:04:51.084Z,1003.20
2022-11-27T08:05:51.025Z,1003.19
2022-11-27T08:06:51.073Z,1003.20
2022-11-27T08:07:51.112Z,1003.18
2022-11-27T08:08:51.020Z,1003.19
2022-11-27T08:09:51.013Z,1003.17
2022-11-27T08:10:51.005Z,1003.24
2022-11-27T08:11:50.996Z,1003.19
2022-11-27T08:12:51.030Z,1003.25
2022-11-27T08:13:50.994Z,1003.25
2022-11-27T08:14:50.975Z,1003.23
2022-11-27T08:15:50.973Z,1003.26
2022-11-27T08:16:51.015Z,1003.20
2022-11-27T08:17:50.996Z,1003.20
2022-11-27T08:18:51.026Z,1003.23
2022-11-27T08:19:50.951Z,1003.13
2022-11-27T08:20:50.950Z,1003.17
2022-11-27T08:21:50.951Z,1003.24
2022-11-27T08:22:50.931Z,1003.18
2022-11-27T08:23:50.962Z,1003.22
2022-11-27T08:24:50.951Z,1003.17
2022-11-27T08:25:50.970Z,1003.15
2022-11-27T08:26:50.948Z,1003.13
2022-11-27T08:27:50.942Z,1003.10
2022-11-27T08:28:50.907Z,1003.09
2022-11-27T08:29:50.935Z,1003.05
2022-11-27T08:30:50.903Z,1002.98
2022-11-27T08:31:50.935Z,1002.97
2022-11-27T08:32:50.874Z,1002.98
2022-11-27T08:33:50.881Z,1002.88
2022-11-27T08:34:50.972Z,1002.86
2022-11-27T08:35:50.889Z,1002.81
2022-11-27T08:36:50.861Z,1002.77
2022-11-27T08:37:50.871Z,1002.79
2022-11-27T08:38:50.863Z,1002.76
2022-11-27T08:39:50.851Z,1002.82
2022-11-27T08:40:50.857Z,1002.78
2022-11-27T08:41:50.839Z,1002.88
2022-11-27T08:42:50.816Z,1002.85
2022-11-27T08:43:50.889Z,1002.82
2022-11-27T08:44:50.830Z,1002.85
2022-11-27T08:45:50.906Z,1002.81
2022-11-27T08:46:50.843Z,1002.86
2022-11-27T08:47:50.792Z,1002.90
2022-11-27T08:48:51.795Z,1002.90
2022-11-27T08:49:50.779Z,1002.96
2022-11-27T08:50:50.843Z,1003.00
2022-11-27T08:51:50.814Z,1002.99
2022-11-27T08:52:50.861Z,1002.99
2022-11-27T08:53:50.785Z,1002.99
2022-11-27T08:54:54.545Z,1002.96
2022-11-27T08:55:52.756Z,1002.93
2022-11-27T08:56:50.775Z,1002.86
2022-11-27T08:57:50.818Z,1002.83
2022-11-27T08:58:50.786Z,1002.75
2022-11-27T08:59:50.715Z,1002.81
2022-11-27T09:00:50.780Z,1002.74
2022-11-27T09:01:50.754Z,1002.73
2022-11-27T09:02:50.748Z,1002.77
2022-11-27T09:03:50.766Z,1002.84
2022-11-27T09:04:50.712Z,1002.83
2022-11-27T09:05:50.769Z,1002.84
2022-11-27T09:06:52.917Z,1002.89
2022-11-27T09:07:52.798Z,1002.90
2022-11-27T09:08:50.692Z,1002.91
2022-11-27T09:09:50.677Z,1002.78
2022-11-27T09:10:50.665Z,1002.77
2022-11-27T09:11:50.662Z,1002.67
2022-11-27T09:12:50.671Z,1002.63
2022-11-27T09:13:50.680Z,1002.54
2022-11-27T09:14:50.671Z,1002.59
2022-11-27T09:15:50.638Z,1002.54
2022-11-27T09:16:50.703Z,1002.58
2022-11-27T09:17:50.653Z,1002.56
2022-11-27T09:18:50.700Z,1002.53
2022-11-27T09:19:51.654Z,1002.54
2022-11-27T09:20:50.639Z,1002.52
2022-11-27T09:21:50.611Z,1002.54
2022-11-27T09:22:50.736Z,1002.57
2022-11-27T09:23:50.616Z,1002.62
2022-11-27T09:24:50.620Z,1002.61
2022-11-27T09:25:50.635Z,1002.64
2022-11-27T09:26:50.585Z,1002.58
2022-11-27T09:27:50.598Z,1002.60
2022-11-27T09:28:50.633Z,1002.48
2022-11-27T09:29:50.570Z,1002.45
2022-11-27T09:30:50.586Z,1002.47
2022-11-27T09:31:50.705Z,1002.48
2022-11-27T09:32:50.578Z,1002.43
2022-11-27T09:33:50.601Z,1002.37
2022-11-27T09:34:50.694Z,1002.41
2022-11-27T09:35:50.550Z,1002.41
2022-11-27T09:36:50.613Z,1002.37
2022-11-27T09:37:50.588Z,1002.42
2022-11-27T09:38:50.598Z,1002.39
2022-11-27T09:39:50.620Z,1002.40
2022-11-27T09:40:50.519Z,1002.45
2022-11-27T09:41:50.519Z,1002.44
2022-11-27T09:42:50.608Z,1002.42
2022-11-27T09:43:50.531Z,1002.47
2022-11-27T09:44:50.514Z,1002.43
2022-11-27T09:45:50.628Z,1002.40
2022-11-27T09:46:50.516Z,1002.37
2022-11-27T09:47:50.486Z,1002.33
2022-11-27T09:48:50.514Z,1002.36
2022-11-27T09:49:50.507Z,1002.38
2022-11-27T09:50:50.513Z,1002.36
2022-11-27T09:51:50.478Z,1002.36
2022-11-27T09:52:50.535Z,1002.35
2022-11-27T09:53:50.472Z,1002.29
2022-11-27T09:54:52.626Z,1002.30
2022-11-27T09:55:51.468Z,1002.25
2022-11-27T09:56:50.620Z,1002.24
2022-11-27T09:57:50.473Z,1002.24
2022-11-27T09:58:50.450Z,1002.23
2022-11-27T09:59:50.476Z,1002.23
2022-11-27T10:00:50.434Z,1002.23
2022-11-27T10:01:51.311Z,1002.18
2022-11-27T10:02:51.566Z,1002.14
2022-11-27T10:03:50.435Z,1002.16
2022-11-27T10:05:12.962Z,1002.14
2022-11-27T10:05:52.412Z,1002.07
2022-11-27T10:06:50.471Z,1002.10
2022-11-27T10:07:50.519Z,1002.09
2022-11-27T10:08:50.393Z,1002.04
2022-11-27T10:09:50.416Z,1001.99
2022-11-27T10:10:50.462Z,1001.96
2022-11-27T10:11:50.407Z,1001.96
2022-11-27T10:12:50.427Z,1001.97
2022-11-27T10:13:50.374Z,1001.90
2022-11-27T10:14:50.388Z,1001.98
2022-11-27T10:15:50.392Z,1001.99
2022-11-27T10:16:50.420Z,1001.91
2022-11-27T10:17:50.378Z,1001.91
2022-11-27T10:18:50.387Z,1001.86
2022-11-27T10:19:50.363Z,1001.84
2022-11-27T10:20:50.384Z,1001.83
2022-11-27T10:21:50.342Z,1001.81
2022-11-27T10:22:50.379Z,1001.82
2022-11-27T10:23:50.324Z,1001.78
2022-11-27T10:24:50.336Z,1001.77
2022-11-27T10:25:50.337Z,1001.81
2022-11-27T10:26:50.393Z,1001.79
2022-11-27T10:27:50.576Z,1001.82
2022-11-27T10:28:50.330Z,1001.77
2022-11-27T10:29:50.532Z,1001.81
2022-11-27T10:30:51.328Z,1001.78
2022-11-27T10:31:50.341Z,1001.73
2022-11-27T10:32:57.512Z,1001.72
2022-11-27T10:33:52.304Z,1001.67
2022-11-27T10:34:50.326Z,1001.66
2022-11-27T10:35:50.289Z,1001.69
2022-11-27T10:36:50.343Z,1001.66
2022-11-27T10:37:50.306Z,1001.69
2022-11-27T10:38:50.254Z,1001.64
2022-11-27T10:39:50.249Z,1001.61
2022-11-27T10:40:50.313Z,1001.63
2022-11-27T10:41:50.370Z,1001.59
2022-11-27T10:42:50.347Z,1001.60
2022-11-27T10:43:50.241Z,1001.57
2022-11-27T10:44:50.238Z,1001.57
2022-11-27T10:45:50.278Z,1001.58
2022-11-27T10:46:50.214Z,1001.54
2022-11-27T10:47:50.272Z,1001.59
2022-11-27T10:48:50.254Z,1001.54
2022-11-27T10:49:50.345Z,1001.54
2022-11-27T10:50:50.241Z,1001.53
2022-11-27T10:51:50.204Z,1001.58
2022-11-27T10:52:52.465Z,1001.52
2022-11-27T10:53:51.206Z,1001.47
2022-11-27T10:54:50.192Z,1001.41
2022-11-27T10:55:51.210Z,1001.44
2022-11-27T10:56:50.201Z,1001.56
2022-11-27T10:57:50.206Z,1001.39
2022-11-27T10:58:50.251Z,1001.41
2022-11-27T10:59:50.187Z,1001.42
2022-11-27T11:00:50.201Z,1001.42
2022-11-27T11:01:50.318Z,1001.37
2022-11-27T11:02:50.286Z,1001.46
2022-11-27T11:03:50.147Z,1001.39
2022-11-27T11:05:09.112Z,1001.28
2022-11-27T11:06:18.520Z,1001.26
2022-11-27T11:06:52.128Z,1001.19
2022-11-27T11:07:50.203Z,1001.20
2022-11-27T11:08:50.127Z,1001.19
2022-11-27T11:09:50.123Z,1001.19
2022-11-27T11:10:50.121Z,1001.21
2022-11-27T11:11:50.122Z,1001.10
2022-11-27T11:12:50.160Z,1001.12
2022-11-27T11:13:50.130Z,1001.11
2022-11-27T11:14:50.177Z,1001.08
2022-11-27T11:15:51.750Z,1001.06
2022-11-27T11:16:51.120Z,1001.04
2022-11-27T11:17:50.091Z,1001.02
2022-11-27T11:18:50.140Z,1000.95
2022-11-27T11:19:50.391Z,1001.03
2022-11-27T11:20:50.100Z,1001.02
2022-11-27T11:21:50.061Z,1001.01
2022-11-27T11:22:50.128Z,1000.97
2022-11-27T11:23:50.076Z,1000.97
2022-11-27T11:24:50.082Z,1000.99
2022-11-27T11:25:50.055Z,1000.90
2022-11-27T11:26:50.096Z,1000.90
2022-11-27T11:27:50.043Z,1000.87
2022-11-27T11:28:50.039Z,1000.86
2022-11-27T11:29:50.094Z,1000.85
2022-11-27T11:30:50.126Z,1000.83
2022-11-27T11:31:50.091Z,1000.74
2022-11-27T11:32:50.031Z,1000.79
2022-11-27T11:33:50.011Z,1000.71
2022-11-27T11:34:50.032Z,1000.68
2022-11-27T11:35:50.037Z,1000.65
2022-11-27T11:36:50.045Z,1000.66
2022-11-27T11:37:49.999Z,1000.64
2022-11-27T11:38:50.027Z,1000.63
2022-11-27T11:39:49.994Z,1000.60
2022-11-27T11:40:50.001Z,1000.56
2022-11-27T11:41:49.999Z,1000.55
2022-11-27T11:42:49.981Z,1000.58
2022-11-27T11:43:49.995Z,1000.54
2022-11-27T11:44:49.986Z,1000.60
2022-11-27T11:45:50.028Z,1000.52
2022-11-27T11:46:50.033Z,1000.53
2022-11-27T11:47:49.956Z,1000.52
2022-11-27T11:48:49.983Z,1000.43
2022-11-27T11:49:49.974Z,1000.47
2022-11-27T11:50:49.974Z,1000.48
2022-11-27T11:51:49.969Z,1000.41
2022-11-27T11:52:49.943Z,1000.40
2022-11-27T11:53:49.933Z,1000.43
2022-11-27T11:54:49.927Z,1000.41
2022-11-27T11:55:49.931Z,1000.37
2022-11-27T11:56:49.955Z,1000.37
2022-11-27T11:57:49.919Z,1000.38
2022-11-27T11:58:49.907Z,1000.38
2022-11-27T11:59:49.904Z,1000.39
2022-11-27T12:01:19.234Z,1000.34
2022-11-27T12:01:52.017Z,1000.27
2022-11-27T12:02:49.918Z,1000.26
2022-11-27T12:03:49.887Z,1000.22
2022-11-27T12:04:49.947Z,1000.21
2022-11-27T12:05:50.877Z,1000.22